createdAt,value
2023-01-22T00:04:07.590Z,0.90
2023-01-22T00:09:09.415Z,0.90
2023-01-22T00:14:11.460Z,0.90
2023-01-22T00:19:13.272Z,0.90
2023-01-22T00:24:15.039Z,0.90
2023-01-22T00:29:17.139Z,1.00
2023-01-22T00:34:18.837Z,0.90
2023-01-22T00:39:20.524Z,0.90
2023-01-22T00:44:22.308Z,0.90
2023-01-22T00:49:23.976Z,0.90
2023-01-22T00:54:25.635Z,0.90
2023-01-22T00:59:27.315Z,0.90
2023-01-22T01:04:28.949Z,0.80
2023-01-22T01:09:30.737Z,0.80
2023-01-22T01:14:32.491Z,0.80
2023-01-22T01:19:34.162Z,0.80
2023-01-22T01:24:36.536Z,0.80
2023-01-22T01:29:38.172Z,0.80
2023-01-22T01:34:39.837Z,0.80
2023-01-22T01:39:41.619Z,0.70
2023-01-22T01:44:43.338Z,0.80
2023-01-22T01:49:50.840Z,0.70
2023-01-22T01:54:56.336Z,0.70
2023-01-22T01:59:59.945Z,0.70
2023-01-22T02:05:02.413Z,0.80
2023-01-22T02:10:06.237Z,0.80
2023-01-22T02:15:09.224Z,0.70
2023-01-22T02:20:11.467Z,0.70
2023-01-22T02:25:13.134Z,0.70
2023-01-22T02:30:15.216Z,0.70
2023-01-22T02:35:17.273Z,0.70
2023-01-22T02:40:19.413Z,0.70
2023-01-22T02:45:21.397Z,0.70
2023-01-22T02:50:23.029Z,0.70
2023-01-22T02:55:25.113Z,0.70
2023-01-22T03:00:26.920Z,0.70
2023-01-22T03:05:31.045Z,0.70
2023-01-22T03:10:32.755Z,0.60
2023-01-22T03:15:53.041Z,0.70
2023-01-22T03:21:12.949Z,0.60
2023-01-22T03:26:15.444Z,0.70
2023-01-22T03:31:17.457Z,0.60
2023-01-22T03:36:19.305Z,0.70
2023-01-22T03:41:21.036Z,0.70
2023-01-22T03:46:22.758Z,0.70
2023-01-22T03:51:24.908Z,0.70
2023-01-22T03:56:27.774Z,0.70
2023-01-22T04:01:29.678Z,0.70
2023-01-22T04:06:31.410Z,0.70
2023-01-22T04:11:33.139Z,0.70
2023-01-22T04:16:35.735Z,0.70
2023-01-22T04:21:37.576Z,0.70
2023-01-22T04:26:39.324Z,0.70
2023-01-22T04:31:41.184Z,0.70
2023-01-22T04:36:42.989Z,0.70
2023-01-22T04:41:44.720Z,0.70
2023-01-22T04:46:46.461Z,0.70
2023-01-22T04:51:48.135Z,0.70
2023-01-22T04:56:49.816Z,0.70
2023-01-22T05:01:52.786Z,0.70
2023-01-22T05:06:54.574Z,0.70
2023-01-22T05:11:56.310Z,0.70
2023-01-22T05:16:58.131Z,0.80
2023-01-22T05:21:59.829Z,0.70
2023-01-22T05:27:01.674Z,0.80
2023-01-22T05:32:03.615Z,0.80
2023-01-22T05:37:06.258Z,0.80
2023-01-22T05:42:07.987Z,0.80
2023-01-22T05:47:09.985Z,0.80
2023-01-22T05:52:11.737Z,0.80
2023-01-22T05:57:13.455Z,0.80
2023-01-22T06:02:15.243Z,0.80
2023-01-22T06:07:16.962Z,0.80
2023-01-22T06:12:18.704Z,0.90
2023-01-22T06:17:21.505Z,0.90
2023-01-22T06:22:23.833Z,0.90
2023-01-22T06:27:25.673Z,0.90
2023-01-22T06:32:27.404Z,0.90
2023-01-22T06:37:30.094Z,0.90
2023-01-22T06:42:31.927Z,0.90
2023-01-22T06:47:33.655Z,0.90
2023-01-22T06:52:35.447Z,1.00
2023-01-22T06:57:37.305Z,1.10
2023-01-22T07:02:39.075Z,1.00
2023-01-22T07:07:41.324Z,1.00
2023-01-22T07:12:43.052Z,1.00
2023-01-22T07:17:50.911Z,1.00
2023-01-22T07:22:52.613Z,1.00
2023-01-22T07:28:04.323Z,1.00
2023-01-22T07:33:07.042Z,1.00
2023-01-22T07:38:09.910Z,1.00
2023-01-22T07:43:15.101Z,1.00
2023-01-22T07:48:16.896Z,1.00
2023-01-22T07:53:18.713Z,1.00
2023-01-22T07:58:21.573Z,1.00
2023-01-22T08:03:23.420Z,1.00
2023-01-22T08:08:25.203Z,1.00
2023-01-22T08:13:28.104Z,1.00
2023-01-22T08:18:29.859Z,1.00
2023-01-22T08:23:31.716Z,1.00
2023-01-22T08:28:33.481Z,1.10
2023-01-22T08:33:35.231Z,1.10
2023-01-22T08:38:37.013Z,1.10
2023-01-22T08:43:38.746Z,1.10
2023-01-22T08:48:43.220Z,1.20
2023-01-22T08:53:45.016Z,1.10
2023-01-22T08:58:51.341Z,1.20
2023-01-22T09:03:53.041Z,1.30
2023-01-22T09:08:55.320Z,1.20
2023-01-22T09:13:58.045Z,1.30
2023-01-22T09:18:59.814Z,1.30
2023-01-22T09:24:01.536Z,1.40
2023-01-22T09:29:05.913Z,1.50
2023-01-22T09:34:07.834Z,1.50
2023-01-22T09:39:09.882Z,1.50
2023-01-22T09:44:23.040Z,1.60
2023-01-22T09:49:29.485Z,1.50
2023-01-22T09:54:31.489Z,1.50
2023-01-22T09:59:39.204Z,1.60
2023-01-22T10:04:45.251Z,1.50
2023-01-22T10:10:18.379Z,1.60
2023-01-22T10:15:23.871Z,1.50
2023-01-22T10:20:26.543Z,1.60
2023-01-22T10:25:28.748Z,1.70
2023-01-22T10:30:31.036Z,1.70
2023-01-22T10:35:43.025Z,1.70
2023-01-22T10:40:44.717Z,1.70
2023-01-22T10:45:59.544Z,1.80
2023-01-22T10:51:21.101Z,1.80
2023-01-22T10:56:34.565Z,1.80
2023-01-22T11:01:39.480Z,1.90
2023-01-22T11:06:45.731Z,1.90
2023-01-22T11:11:54.973Z,2.00
2023-01-22T11:17:02.137Z,2.00
2023-01-22T11:22:14.729Z,2.10
2023-01-22T11:27:37.281Z,2.10
2023-01-22T11:33:03.929Z,2.10
2023-01-22T11:38:22.135Z,2.10
2023-01-22T11:43:38.896Z,2.10
2023-01-22T11:49:05.802Z,2.10
2023-01-22T11:54:35.205Z,2.10
2023-01-22T12:00:10.607Z,2.10
2023-01-22T12:05:24.467Z,2.00
2023-01-22T12:10:35.464Z,2.10
2023-01-22T12:15:48.228Z,2.10
2023-01-22T12:21:12.169Z,2.10
2023-01-22T12:26:23.987Z,2.10
2023-01-22T12:31:41.818Z,2.10
2023-01-22T12:36:44.961Z,2.10
2023-01-22T12:42:00.473Z,2.10
2023-01-22T12:47:17.280Z,2.00
2023-01-22T12:52:30.143Z,2.10
2023-01-22T12:57:40.931Z,2.10
2023-01-22T13:02:42.702Z,2.10
2023-01-22T13:07:45.159Z,2.10
2023-01-22T13:12:52.531Z,2.20
2023-01-22T13:18:07.117Z,2.30
2023-01-22T13:23:12.923Z,2.30
2023-01-22T13:28:18.789Z,2.30
2023-01-22T13:33:20.515Z,2.30
2023-01-22T13:38:26.028Z,2.30
2023-01-22T13:43:36.112Z,2.30
2023-01-22T13:48:38.362Z,2.30
2023-01-22T13:53:47.019Z,2.40
2023-01-22T13:58:50.391Z,2.40
2023-01-22T14:04:02.861Z,2.40
2023-01-22T14:09:04.957Z,2.40
2023-01-22T14:14:18.272Z,2.40
2023-01-22T14:19:20.091Z,2.40
2023-01-22T14:24:21.839Z,2.40
2023-01-22T14:29:23.780Z,2.40
2023-01-22T14:34:25.512Z,2.40
2023-01-22T14:39:27.444Z,2.40
2023-01-22T14:44:29.163Z,2.40
2023-01-22T14:49:30.918Z,2.40
2023-01-22T14:54:32.906Z,2.40
2023-01-22T14:59:34.659Z,2.40
2023-01-22T15:04:39.921Z,2.40
2023-01-22T15:09:41.684Z,2.40
2023-01-22T15:14:43.389Z,2.40
2023-01-22T15:19:45.073Z,2.40
2023-01-22T15:24:46.781Z,2.30
2023-01-22T15:29:48.572Z,2.30
2023-01-22T15:34:50.243Z,2.40
2023-01-22T15:39:52.264Z,2.30
2023-01-22T15:44:53.927Z,2.30
2023-01-22T15:49:55.578Z,2.30
2023-01-22T15:54:57.580Z,2.30
2023-01-22T15:59:59.257Z,2.30
2023-01-22T16:05:01.012Z,2.30
2023-01-22T16:10:02.917Z,2.30
2023-01-22T16:15:06.662Z,2.20
2023-01-22T16:20:09.857Z,2.20
2023-01-22T16:25:12.309Z,2.20
2023-01-22T16:30:14.302Z,2.20
2023-01-22T16:35:18.336Z,2.20
2023-01-22T16:40:20.390Z,2.20
2023-01-22T16:45:23.515Z,2.20
2023-01-22T16:50:25.179Z,2.20
2023-01-22T16:55:26.871Z,2.20
2023-01-22T17:00:28.568Z,2.20
2023-01-22T17:05:30.354Z,2.20
2023-01-22T17:10:32.136Z,2.20
2023-01-22T17:15:33.937Z,2.20
2023-01-22T17:20:37.199Z,2.20
2023-01-22T17:25:41.999Z,2.20
2023-01-22T17:30:43.756Z,2.20
2023-01-22T17:35:45.545Z,2.20
2023-01-22T17:40:47.278Z,2.20
2023-01-22T17:45:50.270Z,2.20
2023-01-22T17:50:52.071Z,2.20
2023-01-22T17:55:53.810Z,2.20
2023-01-22T18:01:02.083Z,2.20
2023-01-22T18:06:04.577Z,2.20
2023-01-22T18:11:12.585Z,2.30
2023-01-22T18:16:16.821Z,2.20
2023-01-22T18:21:19.539Z,2.20
2023-01-22T18:26:23.010Z,2.20
2023-01-22T18:31:27.113Z,2.30
2023-01-22T18:36:32.600Z,2.20
2023-01-22T18:41:34.462Z,2.20
2023-01-22T18:46:36.978Z,2.30
2023-01-22T18:51:40.252Z,2.20
2023-01-22T18:56:42.334Z,2.20
2023-01-22T19:01:50.432Z,2.20
2023-01-22T19:06:54.146Z,2.20
2023-01-22T19:11:55.975Z,2.30
2023-01-22T19:16:57.746Z,2.30
2023-01-22T19:21:59.470Z,2.20
2023-01-22T19:27:01.354Z,2.30
2023-01-22T19:32:03.158Z,2.30
2023-01-22T19:37:06.352Z,2.30
2023-01-22T19:42:08.052Z,2.30
2023-01-22T19:47:11.151Z,2.30
2023-01-22T19:52:13.413Z,2.20
2023-01-22T19:57:15.539Z,2.20
2023-01-22T20:02:20.764Z,2.30
2023-01-22T20:07:25.097Z,2.30
2023-01-22T20:12:26.965Z,2.30
2023-01-22T20:17:28.628Z,2.20
2023-01-22T20:22:30.495Z,2.20
2023-01-22T20:27:32.211Z,2.30
2023-01-22T20:32:33.963Z,2.30
2023-01-22T20:37:35.653Z,2.30
2023-01-22T20:42:37.981Z,2.20
2023-01-22T20:47:39.781Z,2.20
2023-01-22T20:52:41.473Z,2.20
2023-01-22T20:57:43.174Z,2.20
2023-01-22T21:02:45.014Z,2.20
2023-01-22T21:07:46.943Z,2.30
2023-01-22T21:12:48.570Z,2.30
2023-01-22T21:17:50.311Z,2.30
2023-01-22T21:22:52.010Z,2.20
2023-01-22T21:27:53.700Z,2.30
2023-01-22T21:32:56.137Z,2.20
2023-01-22T21:37:58.139Z,2.20
2023-01-22T21:43:18.298Z,2.30
2023-01-22T21:48:20.014Z,2.20
2023-01-22T21:53:21.740Z,2.20
2023-01-22T21:58:23.486Z,2.30
2023-01-22T22:03:25.255Z,2.20
2023-01-22T22:08:27.323Z,2.20
2023-01-22T22:13:29.617Z,2.20
2023-01-22T22:18:31.421Z,2.30
2023-01-22T22:23:35.168Z,2.20
2023-01-22T22:28:36.904Z,2.20
2023-01-22T22:33:40.143Z,2.20
2023-01-22T22:38:42.531Z,2.30
2023-01-22T22:43:46.046Z,2.30
2023-01-22T22:48:48.725Z,2.20
2023-01-22T22:53:55.957Z,2.20
2023-01-22T22:58:58.963Z,2.20
2023-01-22T23:04:01.168Z,2.20
2023-01-22T23:09:06.396Z,2.20
2023-01-22T23:14:09.897Z,2.20
2023-01-22T23:19:30.283Z,2.20
2023-01-22T23:24:31.979Z,2.20
2023-01-22T23:29:33.620Z,2.20
2023-01-22T23:34:35.348Z,2.30
2023-01-22T23:39:37.219Z,2.30
2023-01-22T23:44:39.026Z,2.20
2023-01-22T23:49:41.042Z,2.20
2023-01-22T23:54:42.731Z,2.20
2023-01-22T23:59:44.512Z,2.30
